Time;durP1;ratioP1;P1;durP2;ratioP2;P2;SDS_P1;SDS_P2;PMS_P1;PMS_P2;Temp;Humidity;BMP_temperature;BMP_pressure;BME280_temperature;BME280_humidity;BME280_pressure;Samples;Min_cycle;Max_cycle;Signal;HPM_P1;HPM_P2
2024/02/01 00:01:30;;;;;;;7.80;5.07;;;;;;;9.53;100.00;102392.44;5241267;28;20029;-75
2024/02/01 00:04:02;;;;;;;9.93;5.22;;;;;;;9.53;100.00;102390.66;5241271;28;20040;-75
2024/02/01 00:06:34;;;;;;;8.52;5.55;;;;;;;9.50;100.00;102396.06;5242127;28;20073;-74
2024/02/01 00:09:06;;;;;;;11.95;6.00;;;;;;;9.44;100.00;102381.56;5237365;28;20044;-73
2024/02/01 00:11:38;;;;;;;9.20;5.60;;;;;;;9.44;100.00;102392.03;5233931;28;20033;-74
2024/02/01 00:14:10;;;;;;;7.43;5.57;;;;;;;9.43;100.00;102397.31;5235487;28;20043;-74
2024/02/01 00:16:42;;;;;;;9.82;5.72;;;;;;;9.38;100.00;102388.91;5239854;28;20462;-75
2024/02/01 00:19:14;;;;;;;8.52;5.95;;;;;;;9.36;100.00;102396.00;5238629;28;20025;-75
2024/02/01 00:21:46;;;;;;;11.57;5.57;;;;;;;9.38;100.00;102384.50;5244297;28;20029;-75
2024/02/01 00:24:18;;;;;;;8.73;5.63;;;;;;;9.40;100.00;102397.50;5242408;28;20482;-75
2024/02/01 00:26:50;;;;;;;8.32;5.88;;;;;;;9.33;100.00;102388.31;5242091;28;20033;-75
2024/02/01 00:29:22;;;;;;;10.25;5.40;;;;;;;9.37;100.00;102395.91;5242291;28;20037;-75
2024/02/01 00:31:54;;;;;;;12.88;6.03;;;;;;;9.32;100.00;102390.09;5236489;28;20033;-75
2024/02/01 00:34:26;;;;;;;9.07;5.97;;;;;;;9.32;100.00;102386.59;5240303;28;20526;-75
2024/02/01 00:36:58;;;;;;;12.98;6.80;;;;;;;9.33;100.00;102402.22;5242170;28;20027;-75
2024/02/01 00:39:30;;;;;;;10.68;5.88;;;;;;;9.35;100.00;102391.69;5240523;28;20033;-75
2024/02/01 00:42:02;;;;;;;11.32;6.82;;;;;;;9.33;100.00;102396.16;5241602;28;20029;-75
2024/02/01 00:44:34;;;;;;;8.75;6.75;;;;;;;9.34;100.00;102392.59;5242487;28;20414;-76
2024/02/01 00:47:07;;;;;;;8.93;6.28;;;;;;;9.37;100.00;102398.53;5242720;28;20029;-76
2024/02/01 00:49:39;;;;;;;;;;;;;;;9.96;100.00;102390.84;5242428;28;20507;-75
2024/02/01 00:52:11;;;;;;;10.15;6.40;;;;;;;9.41;100.00;102378.28;5235491;28;19924;-75
2024/02/01 00:54:43;;;;;;;9.18;6.55;;;;;;;9.39;100.00;102383.56;5239335;28;20036;-75
2024/02/01 00:57:15;;;;;;;7.88;6.10;;;;;;;9.35;100.00;102374.19;5239357;28;20033;-75
2024/02/01 00:59:46;;;;;;;11.35;6.80;;;;;;;9.37;100.00;102380.22;5234556;28;20029;-75
2024/02/01 01:02:18;;;;;;;9.18;7.00;;;;;;;9.41;100.00;102376.50;5241842;28;20032;-75
2024/02/01 01:04:50;;;;;;;11.93;6.85;;;;;;;9.40;100.00;102369.59;5242551;28;20048;-75
2024/02/01 01:07:22;;;;;;;11.90;7.18;;;;;;;9.44;100.00;102367.66;5240690;28;20029;-74
2024/02/01 01:09:54;;;;;;;10.20;7.45;;;;;;;9.49;100.00;102382.13;5244489;28;20033;-74
2024/02/01 01:12:26;;;;;;;9.25;7.22;;;;;;;9.47;100.00;102378.78;5241127;28;20493;-74
2024/02/01 01:14:58;;;;;;;9.05;7.88;;;;;;;9.49;100.00;102368.22;5242426;28;20032;-74
2024/02/01 01:17:30;;;;;;;10.05;7.35;;;;;;;9.54;100.00;102370.56;5243208;28;20121;-74
2024/02/01 01:20:03;;;;;;;9.57;7.05;;;;;;;9.53;100.00;102361.88;5240193;28;20041;-76
2024/02/01 01:22:35;;;;;;;10.38;7.65;;;;;;;9.60;100.00;102368.47;5237742;28;20041;-75
2024/02/01 01:25:07;;;;;;;9.40;6.63;;;;;;;9.59;100.00;102366.78;5243955;28;20048;-75
2024/02/01 01:27:39;;;;;;;9.90;7.60;;;;;;;9.60;100.00;102371.06;5239683;28;20398;-76
2024/02/01 01:30:11;;;;;;;8.05;7.10;;;;;;;9.59;100.00;102360.72;5243206;28;20025;-75
2024/02/01 01:32:43;;;;;;;9.30;7.47;;;;;;;9.61;100.00;102359.66;5241682;28;20593;-76
2024/02/01 01:35:15;;;;;;;11.32;7.35;;;;;;;9.66;100.00;102373.34;5242363;28;20040;-75
2024/02/01 01:37:47;;;;;;;9.25;8.02;;;;;;;9.68;100.00;102374.09;5240444;28;20021;-73
2024/02/01 01:40:18;;;;;;;10.95;8.40;;;;;;;9.66;100.00;102367.25;5245666;28;20035;-76
2024/02/01 01:42:51;;;;;;;9.77;8.30;;;;;;;9.68;100.00;102365.41;5244639;28;20574;-76
2024/02/01 01:45:23;;;;;;;10.48;8.32;;;;;;;9.70;100.00;102374.88;5243930;28;20025;-76
2024/02/01 01:47:54;;;;;;;12.43;8.63;;;;;;;9.79;100.00;102373.50;5241143;28;20039;-74
2024/02/01 01:50:26;;;;;;;12.05;9.18;;;;;;;9.78;100.00;102357.91;5245534;28;20029;-76
2024/02/01 01:52:59;;;;;;;11.73;8.18;;;;;;;9.81;100.00;102371.66;5242808;28;20513;-76
2024/02/01 01:55:31;;;;;;;10.88;9.23;;;;;;;9.89;100.00;102379.06;5243262;28;20041;-75
2024/02/01 01:58:03;;;;;;;10.00;8.95;;;;;;;9.89;100.00;102376.44;5236383;28;20398;-76
2024/02/01 02:00:36;;;;;;;11.57;8.98;;;;;;;9.86;100.00;102369.59;5239830;28;20247;-75
2024/02/01 02:03:10;;;;;;;10.05;9.15;;;;;;;9.87;100.00;102371.28;5240959;28;20679;-76
2024/02/01 02:05:42;;;;;;;10.40;9.30;;;;;;;9.85;100.00;102373.16;5240763;28;20037;-76
2024/02/01 02:08:14;;;;;;;12.15;9.82;;;;;;;9.98;100.00;102378.53;5243452;28;20033;-75
2024/02/01 02:10:47;;;;;;;11.07;9.85;;;;;;;9.94;100.00;102377.84;5239165;28;20043;-76
2024/02/01 02:13:19;;;;;;;11.15;10.15;;;;;;;9.96;100.00;102383.84;5243586;28;20501;-76
2024/02/01 02:15:51;;;;;;;10.68;9.70;;;;;;;9.92;100.00;102373.63;5236155;28;20128;-76
2024/02/01 02:18:23;;;;;;;11.13;10.02;;;;;;;9.92;100.00;102384.09;5241428;28;20028;-76
2024/02/01 02:20:56;;;;;;;14.98;10.48;;;;;;;9.97;100.00;102389.94;5239897;28;20498;-76
2024/02/01 02:23:29;;;;;;;11.70;10.10;;;;;;;9.98;100.00;102387.22;5236796;28;20478;-76
2024/02/01 02:26:05;;;;;;;13.02;10.98;;;;;;;9.98;100.00;102373.28;5242283;28;20033;-76
2024/02/01 02:28:38;;;;;;;11.65;10.55;;;;;;;10.03;100.00;102397.41;5242831;28;20033;-76
2024/02/01 02:31:10;;;;;;;12.10;10.90;;;;;;;10.04;100.00;102390.41;5244502;28;20044;-77
2024/02/01 02:33:42;;;;;;;12.02;10.85;;;;;;;10.04;100.00;102398.25;5237955;28;20037;-74
2024/02/01 02:36:14;;;;;;;12.13;10.90;;;;;;;10.07;100.00;102398.09;5237357;28;20029;-76
2024/02/01 02:38:46;;;;;;;14.82;11.60;;;;;;;10.03;100.00;102394.78;5244019;28;20028;-77
2024/02/01 02:41:18;;;;;;;11.98;10.82;;;;;;;10.06;100.00;102388.56;5242133;28;20034;-76
2024/02/01 02:43:50;;;;;;;12.00;10.95;;;;;;;10.01;100.00;102383.59;5242136;28;20483;-76
2024/02/01 02:46:25;;;;;;;12.15;11.05;;;;;;;10.11;100.00;102405.66;5243539;28;20029;-76
2024/02/01 02:48:57;;;;;;;11.38;9.93;;;;;;;10.15;100.00;102401.09;5237052;28;20040;-76
2024/02/01 02:51:29;;;;;;;11.85;10.65;;;;;;;10.11;100.00;102397.81;5242941;28;20034;-77
2024/02/01 02:54:01;;;;;;;12.77;11.60;;;;;;;10.01;100.00;102387.97;5234311;28;20021;-74
2024/02/01 02:56:33;;;;;;;12.02;10.82;;;;;;;10.14;100.00;102407.28;5238253;28;20538;-76
2024/02/01 02:59:04;;;;;;;10.98;10.00;;;;;;;10.18;100.00;102414.84;5244459;28;20483;-74
2024/02/01 03:01:37;;;;;;;12.75;11.55;;;;;;;10.22;100.00;102407.66;5238274;28;20032;-76
2024/02/01 03:04:08;;;;;;;11.15;10.15;;;;;;;10.32;100.00;102410.63;5240545;28;20032;-76
2024/02/01 03:06:40;;;;;;;12.52;11.30;;;;;;;10.36;100.00;102407.75;5236328;28;20491;-76
2024/02/01 03:09:16;;;;;;;13.43;10.75;;;;;;;10.39;100.00;102411.97;5239008;28;20041;-73
2024/02/01 03:11:48;;;;;;;11.82;9.95;;;;;;;10.46;100.00;102414.13;5238714;28;20040;-76
2024/02/01 03:14:20;;;;;;;11.52;9.75;;;;;;;10.47;100.00;102421.06;5236661;28;20467;-75
2024/02/01 03:16:52;;;;;;;12.48;10.00;;;;;;;10.43;100.00;102416.94;5239035;28;20711;-76
2024/02/01 03:19:24;;;;;;;13.23;9.55;;;;;;;10.42;100.00;102407.41;5243608;28;20027;-76
2024/02/01 03:21:57;;;;;;;15.13;10.52;;;;;;;10.42;100.00;102403.94;5246115;28;20028;-76
2024/02/01 03:24:32;;;;;;;15.38;9.93;;;;;;;10.47;100.00;102418.44;5247314;28;20024;-76
2024/02/01 03:27:11;;;;;;;15.55;10.75;;;;;;;10.52;100.00;102422.56;5245747;28;20031;-76
2024/02/01 03:29:43;;;;;;;13.57;10.20;;;;;;;10.61;100.00;102422.03;5242519;28;20376;-75
2024/02/01 03:32:15;;;;;;;16.77;9.80;;;;;;;10.64;100.00;102411.34;5246289;28;20039;-75
2024/02/01 03:34:47;;;;;;;18.92;9.40;;;;;;;10.54;100.00;102416.31;5244847;28;20037;-77
2024/02/01 03:37:19;;;;;;;16.73;8.18;;;;;;;10.60;100.00;102434.25;5249521;28;20481;-76
2024/02/01 03:39:52;;;;;;;15.88;8.35;;;;;;;10.67;100.00;102445.22;5246321;28;20021;-76
2024/02/01 03:42:24;;;;;;;16.30;8.25;;;;;;;10.66;100.00;102433.91;5243122;28;20045;-76
2024/02/01 03:44:56;;;;;;;18.75;8.05;;;;;;;10.70;100.00;102431.94;5247178;28;20489;-75
2024/02/01 03:47:28;;;;;;;25.25;9.90;;;;;;;10.69;100.00;102438.13;5240160;28;20041;-76
2024/02/01 03:50:00;;;;;;;16.13;8.13;;;;;;;10.79;100.00;102444.50;5245181;28;20038;-75
2024/02/01 03:52:33;;;;;;;19.05;8.50;;;;;;;10.79;100.00;102434.00;5248423;28;20037;-73
2024/02/01 03:55:16;;;;;;;18.75;9.18;;;;;;;10.78;100.00;102431.50;5242343;28;20056;-75
2024/02/01 03:57:48;;;;;;;20.50;9.23;;;;;;;10.83;100.00;102439.91;5238320;28;20025;-74
2024/02/01 04:00:28;;;;;;;14.52;7.85;;;;;;;10.82;100.00;102454.78;5240528;28;20291;-76
2024/02/01 04:03:05;;;;;;;16.88;8.38;;;;;;;10.82;100.00;102457.41;5245387;28;20025;-76
2024/02/01 04:05:36;;;;;;;15.77;8.43;;;;;;;10.79;100.00;102469.88;5242878;28;20048;-74
2024/02/01 04:08:09;;;;;;;17.15;9.30;;;;;;;10.72;100.00;102464.16;5243233;28;20029;-76
2024/02/01 04:10:41;;;;;;;17.98;8.82;;;;;;;10.73;100.00;102462.38;5243145;28;20033;-76
2024/02/01 04:13:14;;;;;;;17.63;8.18;;;;;;;10.76;100.00;102480.53;5246165;28;20021;-75
2024/02/01 04:15:45;;;;;;;20.15;8.60;;;;;;;10.77;100.00;102501.44;5245516;28;20493;-77
2024/02/01 04:18:17;;;;;;;17.75;7.95;;;;;;;10.76;100.00;102510.25;5243468;28;20029;-75
2024/02/01 04:20:49;;;;;;;18.70;7.25;;;;;;;10.74;100.00;102516.50;5242552;28;20039;-75
2024/02/01 04:23:21;;;;;;;17.60;6.80;;;;;;;10.65;100.00;102528.38;5250511;28;20025;-75
2024/02/01 04:25:53;;;;;;;17.17;6.70;;;;;;;10.74;100.00;102542.72;5248527;28;20493;-76
2024/02/01 04:28:25;;;;;;;21.20;7.32;;;;;;;10.64;100.00;102545.84;5247766;28;20433;-74
2024/02/01 04:30:57;;;;;;;16.40;7.32;;;;;;;10.56;100.00;102545.44;5245578;28;20111;-76
2024/02/01 04:33:29;;;;;;;15.75;6.43;;;;;;;10.60;100.00;102569.72;5241004;28;20111;-76
2024/02/01 04:36:01;;;;;;;19.50;7.00;;;;;;;10.63;100.00;102567.75;5240868;28;20033;-76
2024/02/01 04:38:33;;;;;;;14.63;5.40;;;;;;;10.61;100.00;102568.78;5249142;28;20082;-75
2024/02/01 04:41:10;;;;;;;14.93;5.78;;;;;;;10.58;100.00;102577.66;5241153;28;20049;-76
2024/02/01 04:43:43;;;;;;;12.30;4.45;;;;;;;10.55;100.00;102577.84;5247209;28;20045;-75
2024/02/01 04:46:15;;;;;;;11.10;4.60;;;;;;;10.49;100.00;102591.28;5242468;28;20406;-73
2024/02/01 04:48:47;;;;;;;12.93;4.35;;;;;;;10.29;100.00;102588.94;5245625;28;20036;-76
2024/02/01 04:51:19;;;;;;;9.07;2.42;;;;;;;10.18;100.00;102610.47;5243611;28;20032;-75
2024/02/01 04:53:50;;;;;;;9.70;2.78;;;;;;;10.04;100.00;102615.59;5246028;28;20470;-75
2024/02/01 04:56:22;;;;;;;10.35;2.40;;;;;;;9.83;100.00;102621.06;5248791;28;20028;-76
2024/02/01 04:58:56;;;;;;;11.25;2.50;;;;;;;9.77;100.00;102625.78;5240910;28;20308;-76
2024/02/01 05:01:30;;;;;;;12.27;2.97;;;;;;;9.56;100.00;102612.06;5244353;28;20029;-76
2024/02/01 05:04:02;;;;;;;11.00;3.15;;;;;;;9.55;100.00;102632.16;5238922;28;20026;-75
2024/02/01 05:06:37;;;;;;;11.05;2.53;;;;;;;9.44;100.00;102637.94;5248339;28;20457;-75
2024/02/01 05:09:23;;;;;;;13.57;3.40;;;;;;;9.35;100.00;102645.38;5240259;28;20040;-76
2024/02/01 05:11:55;;;;;;;12.10;2.53;;;;;;;9.30;100.00;102645.63;5247499;28;20040;-76
2024/02/01 05:14:27;;;;;;;16.35;3.53;;;;;;;9.15;100.00;102641.16;5238244;28;20111;-74
2024/02/01 05:16:59;;;;;;;13.90;2.97;;;;;;;8.99;100.00;102655.00;5237379;28;20542;-73
2024/02/01 05:19:31;;;;;;;11.30;2.85;;;;;;;8.90;100.00;102655.47;5246321;28;20028;-76
2024/02/01 05:22:07;;;;;;;12.63;3.10;;;;;;;8.90;100.00;102679.00;5245360;28;20494;-76
2024/02/01 05:24:39;;;;;;;12.90;2.65;;;;;;;8.81;100.00;102671.59;5242500;28;20028;-75
2024/02/01 05:27:11;;;;;;;14.18;2.70;;;;;;;8.78;100.00;102688.25;5239581;28;20038;-76
2024/02/01 05:29:49;;;;;;;11.70;2.53;;;;;;;8.61;100.00;102669.09;5239849;28;20044;-75
2024/02/01 05:32:21;;;;;;;12.60;3.30;;;;;;;8.52;100.00;102673.81;5246406;28;20044;-73
2024/02/01 05:34:53;;;;;;;12.48;3.17;;;;;;;8.40;100.00;102673.53;5241587;28;20500;-76
2024/02/01 05:37:25;;;;;;;14.02;3.28;;;;;;;8.41;100.00;102683.06;5244304;28;20037;-76
2024/02/01 05:39:57;;;;;;;11.27;3.35;;;;;;;8.30;100.00;102675.69;5241139;28;20033;-76
2024/02/01 05:42:29;;;;;;;14.65;2.75;;;;;;;8.11;100.00;102648.75;5237864;28;20106;-74
2024/02/01 05:45:01;;;;;;;12.30;2.83;;;;;;;8.25;100.00;102678.50;5245572;28;20037;-74
2024/02/01 05:47:32;;;;;;;13.35;2.90;;;;;;;8.14;100.00;102685.97;5240617;28;20033;-75
2024/02/01 05:50:06;;;;;;;12.98;2.60;;;;;;;8.11;100.00;102682.69;5243148;28;20505;-73
2024/02/01 05:52:38;;;;;;;12.82;3.13;;;;;;;8.05;100.00;102702.06;5238106;28;20025;-74
2024/02/01 05:55:13;;;;;;;12.70;3.50;;;;;;;8.02;100.00;102717.84;5240018;28;20029;-74
2024/02/01 05:57:45;;;;;;;13.30;3.30;;;;;;;7.96;100.00;102711.16;5242147;28;20187;-76
2024/02/01 06:00:21;;;;;;;15.50;3.22;;;;;;;7.88;100.00;102725.44;5241575;28;20020;-75
2024/02/01 06:02:53;;;;;;;16.33;3.45;;;;;;;7.88;100.00;102717.59;5253808;28;20048;-77
2024/02/01 06:05:25;;;;;;;18.05;3.67;;;;;;;7.82;100.00;102726.56;5247998;28;20068;-74
2024/02/01 06:07:57;;;;;;;13.50;3.30;;;;;;;7.75;100.00;102733.78;5244106;28;20635;-74
2024/02/01 06:10:29;;;;;;;16.30;3.20;;;;;;;7.65;100.00;102736.84;5241722;28;20036;-75
2024/02/01 06:13:01;;;;;;;14.82;3.05;;;;;;;7.57;100.00;102743.22;5245851;28;20025;-75
2024/02/01 06:15:36;;;;;;;12.75;2.85;;;;;;;7.62;100.00;102752.66;5236945;28;20033;-75
2024/02/01 06:18:09;;;;;;;13.60;2.95;;;;;;;7.62;100.00;102760.47;5240257;28;20402;-75
2024/02/01 06:20:41;;;;;;;12.98;2.70;;;;;;;7.40;100.00;102757.91;5243618;28;20039;-75
2024/02/01 06:23:12;;;;;;;11.73;3.00;;;;;;;7.30;100.00;102766.06;5244282;28;20459;-75
2024/02/01 06:25:45;;;;;;;9.80;2.70;;;;;;;7.21;100.00;102771.69;5238422;28;20033;-75
2024/02/01 06:28:17;;;;;;;12.10;2.70;;;;;;;7.20;100.00;102774.34;5240560;28;20029;-76
2024/02/01 06:30:49;;;;;;;12.10;2.70;;;;;;;6.96;100.00;102768.31;5239115;28;20025;-76
2024/02/01 06:33:28;;;;;;;12.68;3.00;;;;;;;6.89;100.00;102772.06;5247528;28;20457;-75
2024/02/01 06:36:00;;;;;;;16.17;2.55;;;;;;;6.82;100.00;102787.97;5237185;28;20042;-76
2024/02/01 06:38:45;;;;;;;9.45;2.10;;;;;;;6.71;100.00;102779.69;5245710;28;20035;-75
2024/02/01 06:41:27;;;;;;;12.68;2.75;;;;;;;6.72;100.00;102789.19;5235463;28;20036;-78
2024/02/01 06:44:09;;;;;;;12.73;2.60;;;;;;;6.65;100.00;102790.34;5242452;28;20033;-75
2024/02/01 06:57:45;;;;;;;11.00;2.85;;;;;;;6.33;100.00;102796.72;5240032;28;20037;-75
2024/02/01 07:03:02;;;;;;;8.73;2.08;;;;;;;6.42;100.00;102819.81;5246606;28;20056;-75
2024/02/01 07:11:28;;;;;;;15.02;3.33;;;;;;;6.31;100.00;102834.97;5235466;28;20030;-77
2024/02/01 07:14:08;;;;;;;12.43;3.42;;;;;;;6.22;100.00;102846.56;5248839;28;20029;-73
2024/02/01 07:16:57;;;;;;;13.73;3.20;;;;;;;6.23;100.00;102850.84;5243249;28;20416;-74
2024/02/01 07:19:53;;;;;;;13.98;2.88;;;;;;;6.10;100.00;102836.56;5244729;28;20032;-75
2024/02/01 07:23:00;;;;;;;12.05;3.63;;;;;;;6.12;100.00;102833.91;5243987;28;20041;-73
2024/02/01 07:25:47;;;;;;;19.13;4.07;;;;;;;6.01;100.00;102861.13;5239777;28;20029;-73
2024/02/01 07:59:38;;;;;;;13.25;3.08;;;;;;;5.77;100.00;102919.13;5246318;28;20398;-73
2024/02/01 08:02:44;;;;;;;12.23;3.85;;;;;;;5.74;100.00;102921.81;5243817;28;20032;-73
2024/02/01 08:08:07;;;;;;;14.52;3.42;;;;;;;5.91;100.00;102929.09;5242637;28;20029;-74
2024/02/01 08:10:39;;;;;;;14.73;2.85;;;;;;;5.88;100.00;102924.00;5241091;28;20036;-74
2024/02/01 08:13:14;;;;;;;17.55;4.28;;;;;;;5.88;100.00;102918.81;5245460;28;20020;-73
2024/02/01 08:15:46;;;;;;;15.07;2.83;;;;;;;5.93;100.00;102929.94;5243809;28;20386;-73
2024/02/01 08:18:20;;;;;;;17.35;3.40;;;;;;;5.92;100.00;102920.41;5239306;28;20033;-75
2024/02/01 08:20:53;;;;;;;15.65;3.88;;;;;;;5.94;100.00;102949.84;5241845;28;20502;-75
2024/02/01 08:23:25;;;;;;;16.73;3.92;;;;;;;5.97;100.00;102953.19;5243029;28;20116;-74
2024/02/01 08:26:02;;;;;;;19.02;3.83;;;;;;;6.00;100.00;102960.06;5238898;28;20081;-74
2024/02/01 08:28:35;;;;;;;12.48;3.15;;;;;;;6.07;100.00;102962.41;5241866;28;20022;-73
2024/02/01 08:31:14;;;;;;;18.50;4.20;;;;;;;6.07;100.00;102959.81;5240462;28;20040;-75
2024/02/01 08:33:46;;;;;;;16.73;3.83;;;;;;;6.11;100.00;102957.13;5241545;28;20033;-75
2024/02/01 08:36:20;;;;;;;13.52;3.47;;;;;;;6.14;100.00;102964.81;5238118;28;20025;-74
2024/02/01 08:38:52;;;;;;;13.70;3.22;;;;;;;6.11;100.00;102954.53;5240927;28;20035;-74
2024/02/01 08:41:26;;;;;;;19.93;4.63;;;;;;;6.21;100.00;102959.38;5241151;28;20501;-73
2024/02/01 08:43:57;;;;;;;15.48;3.72;;;;;;;6.28;100.00;102965.22;5246309;28;20390;-74
2024/02/01 08:46:29;;;;;;;16.42;3.10;;;;;;;6.33;100.00;102966.78;5244227;28;20051;-75
2024/02/01 08:49:02;;;;;;;14.05;3.20;;;;;;;6.40;100.00;102974.38;5240419;28;20030;-73
2024/02/01 08:51:36;;;;;;;17.40;4.60;;;;;;;6.45;100.00;102975.94;5244031;28;20029;-74
2024/02/01 08:54:10;;;;;;;17.02;4.38;;;;;;;6.46;100.00;102977.63;5244047;28;20386;-73
2024/02/01 08:56:42;;;;;;;14.93;3.20;;;;;;;6.49;100.00;102981.91;5236203;28;20029;-76
2024/02/01 08:59:22;;;;;;;14.75;4.15;;;;;;;6.47;100.00;102981.94;5242131;28;20076;-73
2024/02/01 09:01:54;;;;;;;16.60;3.70;;;;;;;6.56;100.00;103005.06;5244627;28;20403;-73
2024/02/01 09:04:27;;;;;;;19.05;4.07;;;;;;;6.59;100.00;102998.91;5242764;28;20030;-74
2024/02/01 09:06:58;;;;;;;14.90;3.72;;;;;;;6.70;100.00;103004.59;5236984;28;20059;-75
2024/02/01 09:09:30;;;;;;;15.07;4.40;;;;;;;6.76;100.00;103007.00;5240291;28;20029;-74
2024/02/01 09:12:04;;;;;;;18.55;4.25;;;;;;;6.71;100.00;103000.25;5242643;28;20051;-76
2024/02/01 09:14:35;;;;;;;;;;;;;;;7.40;100.00;103022.13;5244589;28;20038;-74
2024/02/01 09:17:07;;;;;;;18.65;4.28;;;;;;;6.96;100.00;103032.38;5236444;28;20279;-74
2024/02/01 09:19:39;;;;;;;16.13;4.35;;;;;;;6.90;100.00;103018.72;5240357;28;20029;-75
2024/02/01 09:22:11;;;;;;;21.77;4.18;;;;;;;7.03;100.00;103031.25;5239795;28;20036;-75
2024/02/01 09:24:43;;;;;;;17.30;4.78;;;;;;;6.98;100.00;103020.16;5229802;28;20311;-73
2024/02/01 09:27:15;;;;;;;19.95;4.97;;;;;;;7.11;100.00;103017.94;5239138;28;20025;-73
2024/02/01 09:29:47;;;;;;;16.25;3.80;;;;;;;7.18;100.00;103026.41;5242389;28;20123;-73
2024/02/01 09:32:19;;;;;;;18.85;4.90;;;;;;;7.21;100.00;103032.38;5237937;28;20045;-73
2024/02/01 09:34:52;;;;;;;13.98;4.05;;;;;;;7.35;100.00;103029.28;5243755;28;20039;-73
2024/02/01 09:37:24;;;;;;;17.60;4.60;;;;;;;7.35;100.00;103016.25;5239673;28;20037;-74
2024/02/01 09:40:00;;;;;;;15.05;4.13;;;;;;;7.42;100.00;103027.28;5245658;28;20039;-75
2024/02/01 09:42:33;;;;;;;19.15;5.30;;;;;;;7.66;100.00;103036.81;5245341;28;20401;-73
2024/02/01 09:45:06;;;;;;;16.92;4.25;;;;;;;7.69;100.00;103043.66;5237941;28;20052;-73
2024/02/01 09:47:46;;;;;;;17.10;3.55;;;;;;;7.81;100.00;103048.44;5245395;28;20035;-76
2024/02/01 09:50:21;;;;;;;15.52;3.28;;;;;;;7.86;100.00;103041.28;5239430;28;20036;-73
2024/02/01 09:52:53;;;;;;;18.55;3.67;;;;;;;7.65;100.00;103035.13;5238507;28;20034;-75
2024/02/01 09:55:25;;;;;;;23.17;4.40;;;;;;;7.72;100.00;103049.63;5242275;28;20037;-73
2024/02/01 09:57:58;;;;;;;16.17;3.50;;;;;;;7.74;100.00;103057.41;5240414;28;20032;-74
2024/02/01 10:00:33;;;;;;;20.33;4.13;;;;;;;7.77;100.00;103062.50;5243758;28;20489;-76
2024/02/01 10:03:05;;;;;;;14.77;3.30;;;;;;;7.85;100.00;103064.84;5235764;28;20036;-76
2024/02/01 10:05:40;;;;;;;17.05;3.65;;;;;;;7.93;100.00;103071.47;5236255;28;20506;-73
2024/02/01 10:08:13;;;;;;;18.40;3.90;;;;;;;7.90;100.00;103075.94;5240789;28;20029;-74
2024/02/01 10:10:46;;;;;;;;;;;;;;;8.45;100.00;103077.28;5240666;28;20052;-74
2024/02/01 10:13:18;;;;;;;17.77;4.07;;;;;;;8.10;100.00;103086.47;5235633;28;19928;-77
2024/02/01 10:15:51;;;;;;;21.70;4.85;;;;;;;8.10;100.00;103068.19;5240422;28;20060;-75
2024/02/01 10:18:23;;;;;;;22.48;4.20;;;;;;;8.19;100.00;103080.06;5239422;28;20390;-73
2024/02/01 10:20:59;;;;;;;16.73;3.35;;;;;;;8.25;100.00;103079.78;5241548;28;20035;-75
2024/02/01 10:23:31;;;;;;;14.45;4.28;;;;;;;8.37;100.00;103096.75;5244087;28;20398;-73
2024/02/01 10:26:03;;;;;;;13.43;3.63;;;;;;;8.40;100.00;103102.72;5237785;28;20038;-75
2024/02/01 10:28:36;;;;;;;12.90;3.55;;;;;;;8.38;100.00;103088.91;5230107;28;20140;-73
2024/02/01 10:31:11;;;;;;;16.38;3.88;;;;;;;8.61;100.00;103103.66;5236771;28;20032;-75
2024/02/01 10:33:45;;;;;;;20.45;4.43;;;;;;;8.54;100.00;103089.13;5235650;28;20034;-74
2024/02/01 10:36:21;;;;;;;17.85;4.53;;;;;;;8.61;100.00;103079.28;5236010;28;20048;-74
2024/02/01 10:38:58;;;;;;;17.95;4.65;;;;;;;8.64;100.00;103084.41;5233274;28;20033;-74
2024/02/01 10:41:35;;;;;;;19.17;3.90;;;;;;;8.74;100.00;103089.16;5240250;28;20028;-74
2024/02/01 10:44:07;;;;;;;22.05;4.20;;;;;;;8.74;100.00;103096.16;5238586;28;20024;-73
2024/02/01 10:46:47;;;;;;;20.45;3.83;;;;;;;8.97;100.00;103103.88;5237189;28;20044;-73
2024/02/01 10:49:28;;;;;;;14.55;4.22;;;;;;;9.04;100.00;103096.63;5239951;28;20032;-73
2024/02/01 10:52:01;;;;;;;22.17;4.60;;;;;;;8.97;100.00;103101.25;5239953;28;20037;-74
2024/02/01 10:54:35;;;;;;;20.47;4.13;;;;;;;9.00;100.00;103103.75;5240244;28;20052;-75
2024/02/01 10:57:07;;;;;;;21.08;4.50;;;;;;;9.08;100.00;103097.34;5241965;28;20661;-73
2024/02/01 10:59:40;;;;;;;15.13;3.95;;;;;;;9.04;100.00;103085.34;5238075;28;20065;-73
2024/02/01 11:02:12;;;;;;;20.27;4.85;;;;;;;9.10;100.00;103074.63;5237279;28;20038;-76
2024/02/01 11:04:48;;;;;;;20.80;4.55;;;;;;;9.29;100.00;103080.75;5246066;28;20041;-74
2024/02/01 11:07:23;;;;;;;15.77;4.53;;;;;;;9.43;100.00;103085.38;5238603;28;20029;-75
2024/02/01 11:09:55;;;;;;;17.88;3.88;;;;;;;9.32;100.00;103077.13;5241611;28;20479;-74
2024/02/01 11:12:28;;;;;;;18.73;4.25;;;;;;;9.47;100.00;103087.81;5237856;28;20685;-74
2024/02/01 11:15:05;;;;;;;14.63;3.83;;;;;;;9.58;100.00;103076.81;5238351;28;20229;-73
2024/02/01 11:17:37;;;;;;;21.05;5.38;;;;;;;9.57;100.00;103082.16;5242958;28;20033;-73
2024/02/01 11:20:10;;;;;;;16.92;4.60;;;;;;;9.75;100.00;103083.94;5241837;28;20021;-73
2024/02/01 11:22:42;;;;;;;19.90;4.55;;;;;;;9.71;100.00;103095.47;5240980;28;20036;-73
2024/02/01 11:25:15;;;;;;;15.55;3.33;;;;;;;9.65;100.00;103085.25;5239976;28;20382;-73
2024/02/01 11:27:46;;;;;;;21.60;4.32;;;;;;;9.69;100.00;103090.28;5237793;28;20033;-75
2024/02/01 11:30:31;;;;;;;25.38;5.20;;;;;;;9.79;100.00;103085.50;5244595;28;20033;-77
2024/02/01 11:33:17;;;;;;;20.65;4.60;;;;;;;9.79;100.00;103090.72;5241662;28;20394;-74
2024/02/01 11:35:49;;;;;;;12.18;3.88;;;;;;;9.60;100.00;103087.25;5236454;28;20032;-75
2024/02/01 11:38:20;;;;;;;17.40;4.60;;;;;;;9.69;100.00;103103.38;5236899;28;20037;-73
2024/02/01 11:40:52;;;;;;;21.77;4.80;;;;;;;9.80;100.00;103102.03;5239412;28;20031;-74
2024/02/01 11:43:24;;;;;;;13.70;4.07;;;;;;;9.79;100.00;103101.19;5239071;28;20504;-76
2024/02/01 11:45:56;;;;;;;16.33;3.90;;;;;;;9.82;100.00;103106.31;5239762;28;20445;-76
2024/02/01 11:48:28;;;;;;;22.08;4.78;;;;;;;9.75;100.00;103087.41;5238178;28;20029;-74
2024/02/01 11:51:00;;;;;;;16.95;4.60;;;;;;;9.82;100.00;103089.75;5244079;28;20047;-75
2024/02/01 11:53:32;;;;;;;16.27;3.75;;;;;;;9.89;100.00;103097.25;5243382;28;20502;-76
2024/02/01 11:56:06;;;;;;;19.08;3.63;;;;;;;9.90;100.00;103088.47;5239580;28;20036;-76
2024/02/01 11:58:37;;;;;;;15.82;3.90;;;;;;;9.94;100.00;103079.56;5246350;28;20029;-74
2024/02/01 12:01:09;;;;;;;17.25;4.35;;;;;;;10.05;100.00;103086.06;5242522;28;20427;-76
2024/02/01 12:03:49;;;;;;;15.02;3.45;;;;;;;10.19;100.00;103083.63;5240919;28;20059;-76
2024/02/01 12:06:22;;;;;;;19.75;4.10;;;;;;;10.07;100.00;103089.44;5237151;28;20050;-75
2024/02/01 12:08:59;;;;;;;18.98;4.45;;;;;;;10.13;100.00;103086.56;5239894;28;20410;-75
2024/02/01 12:11:34;;;;;;;16.08;4.63;;;;;;;10.18;100.00;103081.94;5239987;28;20034;-76
2024/02/01 12:14:11;;;;;;;18.65;3.80;;;;;;;10.34;100.00;103089.94;5247002;28;20397;-76
2024/02/01 12:16:44;;;;;;;18.33;4.65;;;;;;;10.36;100.00;103088.94;5248069;28;20044;-76
2024/02/01 12:19:17;;;;;;;18.85;4.13;;;;;;;10.46;100.00;103086.75;5246548;28;20398;-76
2024/02/01 12:21:53;;;;;;;16.40;3.65;;;;;;;10.48;100.00;103090.13;5243796;28;20044;-76
2024/02/01 12:24:32;;;;;;;18.33;3.70;;;;;;;10.60;100.00;103086.06;5238453;28;20036;-75
2024/02/01 12:27:08;;;;;;;18.77;4.03;;;;;;;10.65;100.00;103086.69;5243302;28;20483;-76
2024/02/01 12:29:41;;;;;;;18.70;5.57;;;;;;;10.64;100.00;103092.84;5244182;28;20033;-75
2024/02/01 12:32:13;;;;;;;21.35;4.35;;;;;;;10.68;100.00;103079.53;5241864;28;20029;-76
2024/02/01 12:34:45;;;;;;;20.42;3.80;;;;;;;10.76;100.00;103083.53;5241083;28;20360;-76
2024/02/01 12:37:17;;;;;;;14.57;4.30;;;;;;;10.80;100.00;103085.09;5241258;28;20041;-75
2024/02/01 12:39:53;;;;;;;14.82;3.65;;;;;;;10.81;100.00;103081.53;5240146;28;20039;-76